Aviation Digital Data Service (ADDS)

Output produced by METARs form (0639 UTC 24 November 2014)
found at http://aviationweather.gov/adds/metars/
 
KMSS 240552Z 2406/2506 03005KT P6SM OVC100 
     FM240800 10012KT 5SM -RA OVC060 WS020/18035KT 
     FM241500 16014G24KT P6SM BKN035 WS020/20040KT 
     FM241700 19014G22KT P6SM BKN040 
     FM250200 22020G29KT P6SM BKN070 
     FM250500 23021G39KT P6SM BKN120